createdAt,value
2019-06-01T00:01:44.602Z,16.52
2019-06-01T00:04:15.118Z,16.20
2019-06-01T00:06:44.945Z,16.57
2019-06-01T00:09:14.627Z,16.93
2019-06-01T00:11:45.561Z,16.90
2019-06-01T00:14:15.635Z,15.15
2019-06-01T00:16:46.063Z,20.23
2019-06-01T00:19:15.971Z,16.37
2019-06-01T00:21:45.692Z,14.70
2019-06-01T00:24:15.320Z,17.20
2019-06-01T00:26:45.856Z,16.05
2019-06-01T00:29:17.102Z,15.78
2019-06-01T00:31:47.924Z,17.92
2019-06-01T00:36:47.989Z,15.18
2019-06-01T00:39:17.804Z,17.25
2019-06-01T00:41:48.066Z,15.70
2019-06-01T00:44:18.036Z,15.45
2019-06-01T00:46:48.749Z,16.25
2019-06-01T00:49:18.480Z,16.27
2019-06-01T00:51:49.092Z,14.93
2019-06-01T00:54:19.030Z,15.32
2019-06-01T00:56:49.712Z,14.80
2019-06-01T00:59:20.747Z,12.95
2019-06-01T01:01:50.594Z,16.45
2019-06-01T01:04:20.331Z,15.83
2019-06-01T01:06:50.875Z,14.05
2019-06-01T01:09:21.939Z,14.68
2019-06-01T01:11:53.308Z,15.58
2019-06-01T01:14:23.177Z,17.60
2019-06-01T01:16:54.142Z,15.18
2019-06-01T01:19:24.115Z,15.70
2019-06-01T01:21:56.322Z,12.73
2019-06-01T01:24:26.199Z,13.90
2019-06-01T01:26:56.809Z,15.08
2019-06-01T01:29:27.647Z,15.20
2019-06-01T01:31:57.438Z,16.50
2019-06-01T01:34:28.387Z,19.32
2019-06-01T01:36:58.417Z,16.30
2019-06-01T01:39:28.257Z,15.83
2019-06-01T01:41:58.627Z,14.55
2019-06-01T01:44:28.507Z,17.77
2019-06-01T01:46:59.062Z,14.20
2019-06-01T01:49:29.786Z,15.63
2019-06-01T01:51:59.742Z,19.42
2019-06-01T01:54:29.571Z,15.85
2019-06-01T01:56:59.394Z,14.85
2019-06-01T01:59:29.316Z,16.07
2019-06-01T02:01:59.103Z,18.15
2019-06-01T02:04:29.019Z,16.30
2019-06-01T02:07:00.184Z,13.48
2019-06-01T02:09:30.041Z,14.68
2019-06-01T02:11:59.816Z,13.88
2019-06-01T02:14:29.655Z,14.38
2019-06-01T02:17:00.261Z,14.90
2019-06-01T02:19:30.220Z,13.60
2019-06-01T02:22:00.699Z,13.72
2019-06-01T02:24:30.718Z,14.68
2019-06-01T02:27:01.308Z,12.18
2019-06-01T02:29:31.315Z,15.70
2019-06-01T02:32:01.758Z,15.68
2019-06-01T02:34:32.597Z,14.35
2019-06-01T02:37:02.493Z,16.27
2019-06-01T02:39:32.272Z,12.80
2019-06-01T02:42:03.480Z,14.05
2019-06-01T02:44:33.795Z,15.08
2019-06-01T02:47:04.529Z,15.63
2019-06-01T02:49:35.020Z,14.87
2019-06-01T02:52:05.807Z,14.40
2019-06-01T02:54:35.739Z,18.00
2019-06-01T02:57:06.205Z,18.00
2019-06-01T02:59:36.344Z,16.57
2019-06-01T03:02:10.870Z,17.62
2019-06-01T03:04:38.170Z,17.42
2019-06-01T03:07:09.913Z,16.87
2019-06-01T03:09:41.024Z,14.65
2019-06-01T03:12:12.986Z,15.18
2019-06-01T03:14:45.745Z,15.65
2019-06-01T03:17:19.502Z,15.30
2019-06-01T03:19:56.981Z,15.15
2019-06-01T03:22:29.908Z,15.88
2019-06-01T03:25:03.777Z,15.85
2019-06-01T03:27:36.474Z,16.50
2019-06-01T03:30:12.357Z,14.45
2019-06-01T03:32:40.776Z,13.62
2019-06-01T03:35:13.056Z,16.60
2019-06-01T03:37:43.089Z,12.73
2019-06-01T03:40:23.122Z,16.70
2019-06-01T03:42:44.560Z,14.43
2019-06-01T03:45:14.483Z,13.60
2019-06-01T03:47:44.530Z,13.28
2019-06-01T03:50:14.441Z,12.33
2019-06-01T03:52:44.252Z,10.03
2019-06-01T03:55:14.121Z,14.43
2019-06-01T03:57:44.009Z,14.68
2019-06-01T04:00:14.395Z,10.58
2019-06-01T04:02:44.249Z,12.25
2019-06-01T04:05:14.134Z,11.65
2019-06-01T04:07:43.879Z,11.65
2019-06-01T04:10:13.763Z,11.78
2019-06-01T04:12:43.561Z,12.23
2019-06-01T04:15:16.570Z,10.28
2019-06-01T04:17:45.121Z,14.30
2019-06-01T04:20:15.204Z,9.85
2019-06-01T04:22:45.071Z,10.38
2019-06-01T04:25:14.925Z,11.50
2019-06-01T04:27:44.876Z,8.53
2019-06-01T04:30:15.919Z,9.08
2019-06-01T04:32:49.929Z,10.48
2019-06-01T04:35:17.194Z,12.58
2019-06-01T04:37:46.948Z,9.23
2019-06-01T04:40:16.823Z,11.43
2019-06-01T04:42:47.399Z,10.40
2019-06-01T04:45:17.279Z,9.38
2019-06-01T04:47:47.177Z,10.50
2019-06-01T04:50:17.148Z,10.30
2019-06-01T04:52:47.006Z,11.30
2019-06-01T04:55:16.765Z,9.55
2019-06-01T04:57:46.462Z,9.43
2019-06-01T05:00:27.871Z,12.82
2019-06-01T05:03:02.212Z,8.00
2019-06-01T05:05:20.171Z,7.83
2019-06-01T05:07:49.927Z,8.83
2019-06-01T05:10:19.802Z,6.28
2019-06-01T05:12:49.818Z,9.53
2019-06-01T05:15:19.952Z,10.50
2019-06-01T05:17:49.848Z,10.08
2019-06-01T05:20:20.972Z,8.25
2019-06-01T05:22:50.759Z,10.60
2019-06-01T05:25:20.680Z,8.33
2019-06-01T05:27:50.492Z,5.95
2019-06-01T05:30:20.471Z,7.08
2019-06-01T05:32:50.252Z,6.72
2019-06-01T05:35:20.160Z,5.97
2019-06-01T05:37:49.915Z,8.75
2019-06-01T05:40:19.867Z,6.17
2019-06-01T05:42:49.511Z,6.37
2019-06-01T05:45:22.117Z,5.42
2019-06-01T05:50:20.218Z,6.22
2019-06-01T05:52:49.836Z,6.92
2019-06-01T05:55:19.727Z,6.40
2019-06-01T05:57:49.556Z,7.67
2019-06-01T06:00:22.256Z,9.23
2019-06-01T06:02:52.218Z,6.42
2019-06-01T06:05:22.883Z,6.92
2019-06-01T06:07:52.760Z,5.62
2019-06-01T06:10:22.674Z,5.80
2019-06-01T06:12:53.367Z,6.67
2019-06-01T06:15:23.179Z,5.10
2019-06-01T06:17:52.918Z,7.25
2019-06-01T06:20:22.523Z,5.08
2019-06-01T06:22:52.516Z,4.90
2019-06-01T06:25:28.097Z,6.10
2019-06-01T06:27:54.848Z,4.78
2019-06-01T06:30:24.654Z,3.40
2019-06-01T06:32:54.574Z,5.90
2019-06-01T06:35:24.659Z,4.67
2019-06-01T06:37:54.268Z,5.33
2019-06-01T06:40:24.331Z,5.25
2019-06-01T06:42:54.118Z,6.22
2019-06-01T06:45:24.951Z,7.53
2019-06-01T06:47:54.827Z,4.60
2019-06-01T06:50:25.607Z,5.12
2019-06-01T06:52:55.626Z,5.62
2019-06-01T06:55:26.153Z,7.53
2019-06-01T06:57:56.023Z,4.00
2019-06-01T07:00:26.880Z,6.95
2019-06-01T07:02:56.985Z,5.25
2019-06-01T07:05:28.487Z,4.22
2019-06-01T07:07:58.295Z,3.50
2019-06-01T07:10:28.389Z,5.00
2019-06-01T07:12:58.148Z,3.50
2019-06-01T07:15:28.060Z,4.90
2019-06-01T07:17:57.987Z,8.45
2019-06-01T07:20:28.003Z,6.83
2019-06-01T07:22:57.865Z,7.62
2019-06-01T07:25:28.808Z,7.72
2019-06-01T07:27:58.778Z,3.95
2019-06-01T07:30:28.621Z,7.80
2019-06-01T07:32:59.496Z,6.75
2019-06-01T07:35:29.431Z,3.80
2019-06-01T07:37:59.249Z,4.10
2019-06-01T07:40:29.000Z,5.75
2019-06-01T07:42:59.861Z,3.83
2019-06-01T07:45:33.432Z,8.28
2019-06-01T07:48:01.306Z,5.55
2019-06-01T07:50:32.223Z,6.05
2019-06-01T07:53:02.473Z,8.10
2019-06-01T07:55:32.368Z,4.67
2019-06-01T07:58:02.168Z,6.25
2019-06-01T08:00:33.173Z,7.62
2019-06-01T08:03:04.986Z,5.10
2019-06-01T08:05:34.923Z,6.67
2019-06-01T08:08:04.878Z,4.95
2019-06-01T08:10:35.780Z,5.17
2019-06-01T08:13:05.699Z,8.28
2019-06-01T08:15:35.613Z,4.58
2019-06-01T08:18:05.606Z,7.37
2019-06-01T08:20:35.399Z,5.08
2019-06-01T08:23:05.304Z,5.40
2019-06-01T08:25:35.187Z,6.15
2019-06-01T08:28:05.064Z,4.08
2019-06-01T08:30:34.950Z,3.80
2019-06-01T08:33:04.843Z,3.95
2019-06-01T08:35:34.664Z,5.37
2019-06-01T08:38:04.591Z,6.37
2019-06-01T08:40:34.253Z,6.78
2019-06-01T08:43:04.190Z,4.53
2019-06-01T08:45:37.213Z,4.87
2019-06-01T08:48:05.535Z,5.10
2019-06-01T08:50:35.380Z,4.65
2019-06-01T08:53:05.275Z,3.35
2019-06-01T08:55:35.195Z,3.83
2019-06-01T08:58:05.071Z,3.17
2019-06-01T09:00:35.094Z,5.78
2019-06-01T09:03:04.886Z,3.83
2019-06-01T09:05:35.202Z,4.03
2019-06-01T09:08:05.230Z,6.70
2019-06-01T09:10:35.522Z,4.03
2019-06-01T09:13:06.221Z,3.33
2019-06-01T09:15:36.076Z,5.00
2019-06-01T09:18:07.426Z,5.87
2019-06-01T09:20:39.007Z,3.40
2019-06-01T09:23:10.037Z,3.95
2019-06-01T09:25:40.055Z,3.58
2019-06-01T09:28:10.051Z,5.05
2019-06-01T09:30:40.117Z,3.87
2019-06-01T09:33:10.118Z,4.15
2019-06-01T09:35:54.275Z,4.60
2019-06-01T09:38:12.418Z,4.83
2019-06-01T09:40:42.416Z,3.47
2019-06-01T09:43:12.943Z,3.75
2019-06-01T09:45:42.795Z,4.92
2019-06-01T09:48:13.591Z,3.70
2019-06-01T09:50:45.660Z,3.80
2019-06-01T09:53:17.584Z,4.20
2019-06-01T09:55:47.520Z,3.52
2019-06-01T09:58:17.435Z,4.90
2019-06-01T10:00:49.289Z,5.90
2019-06-01T10:03:20.555Z,4.85
2019-06-01T10:06:01.382Z,4.53
2019-06-01T10:08:25.559Z,5.33
2019-06-01T10:10:57.692Z,3.17
2019-06-01T10:13:30.491Z,5.20
2019-06-01T10:16:00.901Z,6.10
2019-06-01T10:18:30.923Z,3.72
2019-06-01T10:21:00.642Z,3.80
2019-06-01T10:23:30.528Z,3.25
2019-06-01T10:26:00.366Z,2.83
2019-06-01T10:28:31.576Z,3.00
2019-06-01T10:31:02.335Z,3.65
2019-06-01T10:33:32.660Z,2.30
2019-06-01T10:36:19.007Z,5.30
2019-06-01T10:38:35.076Z,4.67
2019-06-01T10:41:05.110Z,3.03
2019-06-01T10:43:35.600Z,4.08
2019-06-01T10:46:05.677Z,3.42
2019-06-01T10:48:36.109Z,5.87
2019-06-01T10:51:06.212Z,2.27
2019-06-01T10:53:36.357Z,2.70
2019-06-01T10:56:06.382Z,2.52
2019-06-01T10:58:54.437Z,4.40
2019-06-01T11:01:07.592Z,4.28
2019-06-01T11:03:38.679Z,2.27
2019-06-01T11:06:08.777Z,2.92
2019-06-01T11:08:39.029Z,3.00
2019-06-01T11:11:08.869Z,3.83
2019-06-01T11:13:39.061Z,2.25
2019-06-01T11:16:09.749Z,2.60
2019-06-01T11:18:39.772Z,5.50
2019-06-01T11:21:09.642Z,3.33
2019-06-01T11:23:43.297Z,2.72
2019-06-01T11:26:10.643Z,3.98
2019-06-01T11:28:42.160Z,1.98
2019-06-01T11:31:12.150Z,4.40
2019-06-01T11:33:42.029Z,3.87
2019-06-01T11:36:13.265Z,2.85
2019-06-01T11:38:44.673Z,4.60
2019-06-01T11:41:18.300Z,3.72
2019-06-01T11:43:46.326Z,3.60
2019-06-01T11:46:16.306Z,3.72
2019-06-01T11:48:47.184Z,2.07
2019-06-01T11:51:17.052Z,3.67
2019-06-01T11:53:46.697Z,3.90
2019-06-01T11:56:17.569Z,2.70
2019-06-01T11:58:47.598Z,4.00
2019-06-01T12:01:17.518Z,4.42
2019-06-01T12:03:47.261Z,3.75
2019-06-01T12:06:17.282Z,2.62
2019-06-01T12:08:47.749Z,3.65
2019-06-01T12:11:17.536Z,3.95
2019-06-01T12:13:47.415Z,1.95
2019-06-01T12:16:17.331Z,2.12
2019-06-01T12:18:47.051Z,2.05
2019-06-01T12:21:16.814Z,3.20
2019-06-01T12:23:47.584Z,3.70
2019-06-01T12:26:17.431Z,5.40
2019-06-01T12:28:47.923Z,4.55
2019-06-01T12:31:18.220Z,2.95
2019-06-01T12:33:48.676Z,2.67
2019-06-01T12:36:18.859Z,4.10
2019-06-01T12:38:50.126Z,3.15
2019-06-01T12:41:22.342Z,2.17
2019-06-01T12:43:54.160Z,2.10
2019-06-01T12:46:24.018Z,2.85
2019-06-01T12:48:54.925Z,3.37
2019-06-01T12:51:24.898Z,2.85
2019-06-01T12:53:54.638Z,4.10
2019-06-01T12:56:24.456Z,4.50
2019-06-01T12:58:54.320Z,2.58
2019-06-01T13:01:24.241Z,5.00
2019-06-01T13:03:53.873Z,2.92
2019-06-01T13:06:23.764Z,2.35
2019-06-01T13:08:53.697Z,2.60
2019-06-01T13:11:23.577Z,2.45
2019-06-01T13:13:53.367Z,2.52
2019-06-01T13:16:23.158Z,3.42
2019-06-01T13:18:53.042Z,2.85
2019-06-01T13:21:23.020Z,1.72
2019-06-01T13:23:52.650Z,2.20
2019-06-01T13:26:22.600Z,3.95
2019-06-01T13:28:52.665Z,2.75
2019-06-01T13:31:22.662Z,5.53
2019-06-01T13:33:53.700Z,2.83
2019-06-01T13:36:23.687Z,2.37
2019-06-01T13:38:53.592Z,4.05
2019-06-01T13:41:23.564Z,3.22
2019-06-01T13:43:53.573Z,3.77
2019-06-01T13:46:23.448Z,3.05
2019-06-01T13:48:54.303Z,2.90
2019-06-01T13:51:24.292Z,3.20
2019-06-01T13:53:54.649Z,2.72
2019-06-01T13:56:24.767Z,3.10
2019-06-01T13:58:54.709Z,2.98
2019-06-01T14:01:24.512Z,3.30
2019-06-01T14:03:55.660Z,4.50
2019-06-01T14:06:25.696Z,3.55
2019-06-01T14:08:55.573Z,4.25
2019-06-01T14:11:25.535Z,3.30
2019-06-01T14:13:56.157Z,5.28
2019-06-01T14:16:25.983Z,4.50
2019-06-01T14:18:56.084Z,3.90
2019-06-01T14:21:25.961Z,5.00
2019-06-01T14:23:56.160Z,3.60
2019-06-01T14:26:27.181Z,4.75
2019-06-01T14:28:56.980Z,4.80
2019-06-01T14:31:26.858Z,5.35
2019-06-01T14:33:56.747Z,3.77
2019-06-01T14:36:26.771Z,3.20
2019-06-01T14:38:58.632Z,5.08
2019-06-01T14:41:27.826Z,3.42
2019-06-01T14:43:57.820Z,3.92
2019-06-01T14:46:27.778Z,5.20
2019-06-01T14:48:57.730Z,5.53
2019-06-01T14:51:27.713Z,5.28
2019-06-01T14:53:57.965Z,4.25
2019-06-01T14:56:27.919Z,3.20
2019-06-01T14:58:58.402Z,4.35
2019-06-01T15:01:32.901Z,5.72
2019-06-01T15:04:00.926Z,7.10
2019-06-01T15:06:31.755Z,3.70
2019-06-01T15:09:15.277Z,3.75
2019-06-01T15:11:33.043Z,2.67
2019-06-01T15:14:02.922Z,3.37
2019-06-01T15:16:32.916Z,4.22
2019-06-01T15:19:02.568Z,5.95
2019-06-01T15:21:32.296Z,4.70
2019-06-01T15:24:02.379Z,2.87
2019-06-01T15:26:32.056Z,3.17
2019-06-01T15:29:03.078Z,3.42
2019-06-01T15:31:33.205Z,3.22
2019-06-01T15:34:03.304Z,2.62
2019-06-01T15:36:33.046Z,2.10
2019-06-01T15:39:14.908Z,2.72
2019-06-01T15:41:37.800Z,2.40
2019-06-01T15:44:08.443Z,2.15
2019-06-01T15:46:38.247Z,3.47
2019-06-01T15:49:10.380Z,2.27
2019-06-01T15:51:40.360Z,3.12
2019-06-01T15:54:10.178Z,2.75
2019-06-01T15:56:40.920Z,4.62
2019-06-01T15:59:10.768Z,2.85
2019-06-01T16:01:40.466Z,2.55
2019-06-01T16:04:10.327Z,1.90
2019-06-01T16:06:40.112Z,4.40
2019-06-01T16:09:10.023Z,3.47
2019-06-01T16:11:40.016Z,1.98
2019-06-01T16:14:09.816Z,2.55
2019-06-01T16:16:39.553Z,4.08
2019-06-01T16:19:09.441Z,3.70
2019-06-01T16:21:39.236Z,4.10
2019-06-01T16:24:09.088Z,3.05
2019-06-01T16:26:38.751Z,3.40
2019-06-01T16:29:08.592Z,2.00
2019-06-01T16:31:38.443Z,3.62
2019-06-01T16:34:08.740Z,1.95
2019-06-01T16:36:38.460Z,3.60
2019-06-01T16:39:09.921Z,4.00
2019-06-01T16:41:40.284Z,5.10
2019-06-01T16:44:11.305Z,7.60
2019-06-01T16:46:41.386Z,3.25
2019-06-01T16:49:11.266Z,2.67
2019-06-01T16:51:43.935Z,3.25
2019-06-01T16:54:13.867Z,4.33
2019-06-01T16:56:43.524Z,3.77
2019-06-01T16:59:13.339Z,2.45
2019-06-01T17:01:43.205Z,3.67
2019-06-01T17:04:13.114Z,4.55
2019-06-01T17:06:43.183Z,3.17
2019-06-01T17:09:13.173Z,4.97
2019-06-01T17:11:43.060Z,5.65
2019-06-01T17:14:13.655Z,2.40
2019-06-01T17:16:43.621Z,4.35
2019-06-01T17:19:13.266Z,5.10
2019-06-01T17:21:43.177Z,3.45
2019-06-01T17:24:13.063Z,7.12
2019-06-01T17:26:42.989Z,5.08
2019-06-01T17:29:12.925Z,4.87
2019-06-01T17:31:54.098Z,3.90
2019-06-01T17:34:14.126Z,4.83
2019-06-01T17:36:43.967Z,3.90
2019-06-01T17:39:13.866Z,4.40
2019-06-01T17:41:43.809Z,5.20
2019-06-01T17:44:13.663Z,7.30
2019-06-01T17:46:53.483Z,4.25
2019-06-01T17:49:15.232Z,2.22
2019-06-01T17:51:45.016Z,3.22
2019-06-01T17:54:14.956Z,2.37
2019-06-01T17:56:44.861Z,3.15
2019-06-01T17:59:14.753Z,3.05
2019-06-01T18:01:44.652Z,4.08
2019-06-01T18:04:14.514Z,4.97
2019-06-01T18:06:44.420Z,6.08
2019-06-01T18:09:14.388Z,5.47
2019-06-01T18:11:44.646Z,6.33
2019-06-01T18:14:14.735Z,3.20
2019-06-01T18:16:44.704Z,4.35
2019-06-01T18:19:14.516Z,6.37
2019-06-01T18:21:44.485Z,3.00
2019-06-01T18:24:14.608Z,2.20
2019-06-01T18:26:44.606Z,2.10
2019-06-01T18:29:14.511Z,4.47
2019-06-01T18:31:44.414Z,7.22
2019-06-01T18:34:14.418Z,3.05
2019-06-01T18:36:44.316Z,4.03
2019-06-01T18:39:14.444Z,4.65
2019-06-01T18:41:44.360Z,4.62
2019-06-01T18:44:14.251Z,5.00
2019-06-01T18:46:44.227Z,3.02
2019-06-01T18:49:17.934Z,2.83
2019-06-01T18:51:45.721Z,3.22
2019-06-01T18:54:15.735Z,2.70
2019-06-01T18:56:45.581Z,2.98
2019-06-01T18:59:15.248Z,2.27
2019-06-01T19:01:45.054Z,3.98
2019-06-01T19:04:15.945Z,1.40
2019-06-01T19:06:45.997Z,4.57
2019-06-01T19:09:15.741Z,2.50
2019-06-01T19:11:45.511Z,4.25
2019-06-01T19:14:16.063Z,2.75
2019-06-01T19:16:45.911Z,2.05
2019-06-01T19:19:16.751Z,1.92
2019-06-01T19:21:46.544Z,3.83
2019-06-01T19:24:16.752Z,3.47
2019-06-01T19:26:46.692Z,3.20
2019-06-01T19:29:17.018Z,1.70
2019-06-01T19:31:46.918Z,2.67
2019-06-01T19:34:17.255Z,1.70
2019-06-01T19:36:47.863Z,2.60
2019-06-01T19:39:17.566Z,2.02
2019-06-01T19:41:47.473Z,4.30
2019-06-01T19:44:17.878Z,2.85
2019-06-01T19:46:49.095Z,2.37
2019-06-01T19:49:19.111Z,2.15
2019-06-01T19:51:48.782Z,1.37
2019-06-01T19:54:19.046Z,1.52
2019-06-01T19:56:49.008Z,2.65
2019-06-01T19:59:18.724Z,2.22
2019-06-01T20:01:48.568Z,2.42
2019-06-01T20:04:18.701Z,2.02
2019-06-01T20:06:48.428Z,2.15
2019-06-01T20:09:19.287Z,2.27
2019-06-01T20:12:01.560Z,3.15
2019-06-01T20:14:20.607Z,2.52
2019-06-01T20:16:50.530Z,5.25
2019-06-01T20:19:20.415Z,3.95
2019-06-01T20:21:50.196Z,4.95
2019-06-01T20:24:21.353Z,2.80
2019-06-01T20:26:51.357Z,2.27
2019-06-01T20:29:21.783Z,4.20
2019-06-01T20:31:51.809Z,4.58
2019-06-01T20:34:22.100Z,1.75
2019-06-01T20:36:51.909Z,2.52
2019-06-01T20:39:22.372Z,4.03
2019-06-01T20:41:52.417Z,2.25
2019-06-01T20:44:22.995Z,4.30
2019-06-01T20:46:53.710Z,2.58
2019-06-01T20:49:23.693Z,4.50
2019-06-01T20:51:53.476Z,3.85
2019-06-01T20:54:23.354Z,3.05
2019-06-01T20:56:53.032Z,2.95
2019-06-01T20:59:24.285Z,2.00
2019-06-01T21:01:54.376Z,3.33
2019-06-01T21:04:24.323Z,2.90
2019-06-01T21:06:54.317Z,5.25
2019-06-01T21:09:24.405Z,2.08
2019-06-01T21:11:54.371Z,3.75
2019-06-01T21:14:24.120Z,2.35
2019-06-01T21:16:53.928Z,2.80
2019-06-01T21:19:24.502Z,5.25
2019-06-01T21:21:54.505Z,1.87
2019-06-01T21:24:25.226Z,4.08
2019-06-01T21:26:54.978Z,4.22
2019-06-01T21:29:25.164Z,3.55
2019-06-01T21:31:55.095Z,4.10
2019-06-01T21:34:25.429Z,5.40
2019-06-01T21:36:55.317Z,3.77
2019-06-01T21:39:25.534Z,4.05
2019-06-01T21:41:55.507Z,5.60
2019-06-01T21:44:25.701Z,2.72
2019-06-01T21:46:55.659Z,4.33
2019-06-01T21:49:26.320Z,5.42
2019-06-01T21:51:56.169Z,5.92
2019-06-01T21:54:26.373Z,6.60
2019-06-01T21:56:56.305Z,2.67
2019-06-01T21:59:27.142Z,4.40
2019-06-01T22:01:57.259Z,2.87
2019-06-01T22:04:27.276Z,4.03
2019-06-01T22:06:58.324Z,3.75
2019-06-01T22:09:28.095Z,3.58
2019-06-01T22:11:57.957Z,3.42
2019-06-01T22:14:27.803Z,4.20
2019-06-01T22:16:57.743Z,7.70
2019-06-01T22:19:28.115Z,3.00
2019-06-01T22:21:57.935Z,4.87
2019-06-01T22:24:28.326Z,4.87
2019-06-01T22:26:58.318Z,4.97
2019-06-01T22:29:28.597Z,4.53
2019-06-01T22:31:58.356Z,5.70
2019-06-01T22:34:29.330Z,6.33
2019-06-01T22:36:59.166Z,3.90
2019-06-01T22:39:29.187Z,6.00
2019-06-01T22:41:59.059Z,5.62
2019-06-01T22:44:28.926Z,4.67
2019-06-01T22:46:58.744Z,5.87
2019-06-01T22:49:28.938Z,6.90
2019-06-01T22:51:58.855Z,6.22
2019-06-01T22:54:29.838Z,6.75
2019-06-01T22:56:59.450Z,8.63
2019-06-01T22:59:29.305Z,11.00
2019-06-01T23:01:58.945Z,5.15
2019-06-01T23:04:29.282Z,4.22
2019-06-01T23:06:59.373Z,6.40
2019-06-01T23:09:29.723Z,5.92
2019-06-01T23:11:59.824Z,5.72
2019-06-01T23:14:29.791Z,7.33
2019-06-01T23:16:59.423Z,7.87
2019-06-01T23:19:29.953Z,8.05
2019-06-01T23:21:59.971Z,4.92
2019-06-01T23:24:30.316Z,6.85
2019-06-01T23:27:00.364Z,5.33
2019-06-01T23:29:30.273Z,5.35
2019-06-01T23:32:00.201Z,8.33
2019-06-01T23:34:30.680Z,5.85
2019-06-01T23:37:00.600Z,6.65
2019-06-01T23:39:30.818Z,8.15
2019-06-01T23:42:00.691Z,6.62
2019-06-01T23:44:33.270Z,5.10
2019-06-01T23:47:01.762Z,6.45
2019-06-01T23:49:31.646Z,5.28
2019-06-01T23:52:01.707Z,7.55
2019-06-01T23:54:32.482Z,9.30
2019-06-01T23:57:02.669Z,8.10
2019-06-01T23:59:32.560Z,6.75
